createdAt,value
2023-01-19T00:02:41.529Z,13.05
2023-01-19T00:04:30.659Z,13.25
2023-01-19T00:07:04.101Z,13.25
2023-01-19T00:09:33.848Z,13.21
2023-01-19T00:12:04.402Z,13.03
2023-01-19T00:14:36.624Z,13.13
2023-01-19T00:17:11.778Z,13.06
2023-01-19T00:19:51.637Z,12.99
2023-01-19T00:22:22.352Z,12.96
2023-01-19T00:24:51.444Z,13.06
2023-01-19T00:27:28.733Z,13.26
2023-01-19T00:32:34.923Z,13.10
2023-01-19T00:35:04.331Z,13.17
2023-01-19T00:37:36.488Z,13.25
2023-01-19T00:40:08.727Z,13.52
2023-01-19T00:42:53.829Z,13.38
2023-01-19T00:45:28.393Z,13.34
2023-01-19T00:47:58.916Z,13.59
2023-01-19T00:50:36.652Z,13.61
2023-01-19T00:53:12.366Z,13.34
2023-01-19T00:55:43.436Z,13.48
2023-01-19T00:58:12.484Z,13.34
2023-01-19T01:01:25.035Z,13.45
2023-01-19T01:04:01.523Z,13.45
2023-01-19T01:09:38.650Z,13.59
2023-01-19T01:12:23.109Z,13.59
2023-01-19T01:17:37.911Z,13.48
2023-01-19T01:20:16.560Z,13.62
2023-01-19T01:22:53.424Z,13.65
2023-01-19T01:25:37.184Z,13.69
2023-01-19T01:28:08.981Z,13.78
2023-01-19T01:30:41.583Z,13.79
2023-01-19T01:33:13.467Z,13.70
2023-01-19T01:35:46.732Z,13.73
2023-01-19T01:38:19.494Z,13.92
2023-01-19T01:40:49.808Z,13.81
2023-01-19T01:43:23.318Z,13.95
2023-01-19T01:45:57.788Z,13.80
2023-01-19T01:48:35.973Z,13.83
2023-01-19T01:51:25.855Z,13.82
2023-01-19T01:54:13.033Z,13.80
2023-01-19T01:56:47.903Z,13.83
2023-01-19T01:59:21.963Z,13.94
2023-01-19T02:02:08.920Z,14.08
2023-01-19T02:04:49.204Z,14.08
2023-01-19T02:07:45.007Z,14.04
2023-01-19T02:10:37.876Z,13.96
2023-01-19T02:19:12.340Z,13.92
2023-01-19T02:21:59.557Z,13.96
2023-01-19T02:24:43.439Z,14.11
2023-01-19T02:30:05.859Z,13.92
2023-01-19T02:32:39.397Z,13.94
2023-01-19T02:35:10.337Z,13.83
2023-01-19T02:37:43.539Z,13.74
2023-01-19T02:40:24.635Z,13.63
2023-01-19T02:42:59.598Z,13.50
2023-01-19T02:45:40.773Z,13.58
2023-01-19T02:48:16.374Z,13.88
2023-01-19T02:50:52.163Z,14.06
2023-01-19T02:54:08.739Z,14.00
2023-01-19T02:56:40.979Z,13.72
2023-01-19T02:59:34.524Z,13.89
2023-01-19T03:02:16.907Z,13.92
2023-01-19T03:05:00.308Z,13.92
2023-01-19T03:07:50.172Z,13.95
2023-01-19T03:10:38.513Z,13.84
2023-01-19T03:13:13.634Z,14.00
2023-01-19T03:15:45.605Z,13.93
2023-01-19T03:18:23.476Z,13.72
2023-01-19T03:21:24.840Z,13.80
2023-01-19T03:24:17.350Z,13.66
2023-01-19T03:26:49.473Z,13.82
2023-01-19T03:29:24.077Z,13.85
2023-01-19T03:32:13.994Z,13.74
2023-01-19T03:34:46.886Z,14.09
2023-01-19T03:37:21.822Z,13.94
2023-01-19T03:39:55.134Z,13.96
2023-01-19T03:42:25.907Z,14.03
2023-01-19T03:45:15.103Z,13.98
2023-01-19T03:47:47.386Z,13.94
2023-01-19T03:53:23.195Z,13.85
2023-01-19T03:56:04.237Z,13.84
2023-01-19T03:58:33.688Z,13.92
2023-01-19T04:04:03.039Z,13.95
2023-01-19T04:06:35.379Z,13.85
2023-01-19T04:09:19.367Z,13.80
2023-01-19T04:11:48.355Z,13.71
2023-01-19T04:17:57.842Z,13.67
2023-01-19T04:23:52.529Z,13.93
2023-01-19T04:29:41.703Z,13.73
2023-01-19T04:32:20.293Z,13.77
2023-01-19T04:34:53.838Z,13.81
2023-01-19T04:37:22.604Z,13.85
2023-01-19T04:39:51.289Z,13.89
2023-01-19T04:42:22.795Z,13.99
2023-01-19T04:44:53.173Z,14.07
2023-01-19T04:47:22.647Z,14.06
2023-01-19T04:49:51.457Z,14.11
2023-01-19T04:52:22.281Z,14.01
2023-01-19T04:54:58.676Z,14.15
2023-01-19T04:57:25.509Z,14.19
2023-01-19T04:59:54.534Z,14.11
2023-01-19T05:05:43.166Z,13.95
2023-01-19T05:08:18.022Z,14.04
2023-01-19T05:11:52.007Z,14.06
2023-01-19T05:14:20.802Z,14.14
2023-01-19T05:16:52.791Z,14.08
2023-01-19T05:19:21.586Z,14.04
2023-01-19T05:21:56.243Z,13.88
2023-01-19T05:24:27.210Z,13.77
2023-01-19T05:26:59.357Z,14.05
2023-01-19T05:29:33.994Z,14.07
2023-01-19T05:32:11.240Z,14.14
2023-01-19T05:35:07.001Z,13.71
2023-01-19T05:37:37.752Z,14.11
2023-01-19T05:40:15.468Z,14.10
2023-01-19T05:42:49.143Z,13.94
2023-01-19T05:45:18.341Z,14.14
2023-01-19T05:47:49.306Z,14.20
2023-01-19T05:50:20.453Z,14.07
2023-01-19T05:52:49.794Z,14.25
2023-01-19T05:55:22.983Z,14.07
2023-01-19T05:57:56.268Z,14.12
2023-01-19T06:00:31.263Z,14.39
2023-01-19T06:03:03.665Z,14.23
2023-01-19T06:05:32.636Z,14.28
2023-01-19T06:08:01.326Z,14.42
2023-01-19T06:10:37.033Z,14.36
2023-01-19T06:13:05.826Z,14.31
2023-01-19T06:15:55.394Z,14.38
2023-01-19T06:18:26.302Z,14.42
2023-01-19T06:20:56.968Z,14.47
2023-01-19T06:23:31.092Z,14.55
2023-01-19T06:25:59.888Z,14.44
2023-01-19T06:28:29.983Z,14.35
2023-01-19T06:30:59.249Z,14.58
2023-01-19T06:33:31.282Z,14.56
2023-01-19T06:36:00.815Z,14.72
2023-01-19T06:38:33.058Z,14.65
2023-01-19T06:41:07.297Z,14.62
2023-01-19T06:43:37.679Z,14.79
2023-01-19T06:46:09.535Z,14.88
2023-01-19T06:48:38.904Z,14.91
2023-01-19T06:51:09.531Z,14.94
2023-01-19T06:53:39.683Z,15.05
2023-01-19T06:56:10.068Z,15.05
2023-01-19T06:58:39.359Z,15.08
2023-01-19T07:01:12.992Z,15.09
2023-01-19T07:03:46.983Z,15.10
2023-01-19T07:06:21.613Z,15.09
2023-01-19T07:09:03.838Z,15.12
2023-01-19T07:11:58.533Z,15.16
2023-01-19T07:14:10.947Z,15.19
2023-01-19T07:16:41.545Z,15.24
2023-01-19T07:19:15.289Z,15.20
2023-01-19T07:21:47.162Z,15.27
2023-01-19T07:24:18.822Z,15.29
2023-01-19T07:27:00.630Z,15.37
2023-01-19T07:29:32.254Z,15.40
2023-01-19T07:32:06.986Z,15.49
2023-01-19T07:34:37.261Z,15.49
2023-01-19T07:37:07.517Z,15.57
2023-01-19T07:39:38.877Z,15.65
2023-01-19T07:42:09.262Z,15.66
2023-01-19T07:44:40.454Z,15.67
2023-01-19T07:47:12.280Z,15.67
2023-01-19T07:49:45.319Z,15.71
2023-01-19T07:52:16.144Z,15.70
2023-01-19T07:54:49.444Z,15.75
2023-01-19T07:57:17.825Z,15.83
2023-01-19T07:59:48.369Z,15.85
2023-01-19T08:02:19.708Z,15.91
2023-01-19T08:04:52.354Z,15.97
2023-01-19T08:07:27.087Z,15.99
2023-01-19T08:09:57.345Z,16.06
2023-01-19T08:12:32.635Z,16.07
2023-01-19T08:15:06.145Z,16.12
2023-01-19T08:17:36.268Z,16.16
2023-01-19T08:20:10.530Z,16.20
2023-01-19T08:22:46.691Z,16.24
2023-01-19T08:25:22.040Z,16.27
2023-01-19T08:27:53.311Z,16.25
2023-01-19T08:30:26.631Z,16.30
2023-01-19T08:32:58.919Z,16.36
2023-01-19T08:35:28.186Z,16.46
2023-01-19T08:38:01.759Z,16.38
2023-01-19T08:40:49.551Z,16.48
2023-01-19T08:43:22.050Z,16.48
2023-01-19T08:49:00.387Z,16.49
2023-01-19T08:51:34.120Z,16.63
2023-01-19T08:54:02.966Z,16.62
2023-01-19T08:56:31.940Z,16.55
2023-01-19T08:59:14.044Z,16.28
2023-01-19T09:02:17.942Z,16.65
2023-01-19T09:17:01.545Z,16.78
2023-01-19T09:19:30.228Z,16.79
2023-01-19T09:25:23.345Z,16.90
2023-01-19T09:27:52.630Z,16.95
2023-01-19T09:30:23.395Z,17.00
2023-01-19T09:33:03.804Z,17.00
2023-01-19T09:35:37.441Z,16.98
2023-01-19T09:38:15.416Z,16.90
2023-01-19T09:41:07.412Z,16.92
2023-01-19T09:44:05.775Z,16.98
2023-01-19T09:46:34.024Z,17.02
2023-01-19T09:49:08.900Z,17.13
2023-01-19T09:51:40.450Z,17.17
2023-01-19T09:54:27.182Z,17.33
2023-01-19T09:57:02.178Z,17.20
2023-01-19T09:59:32.766Z,17.04
2023-01-19T10:02:14.640Z,17.20
2023-01-19T10:04:48.702Z,17.20
2023-01-19T10:07:26.429Z,17.27
2023-01-19T10:10:21.236Z,17.16
2023-01-19T10:12:52.945Z,17.17
2023-01-19T10:15:57.663Z,17.21
2023-01-19T10:18:51.939Z,17.39
2023-01-19T10:21:36.230Z,17.13
2023-01-19T10:24:46.831Z,17.08
2023-01-19T10:27:19.832Z,17.15
2023-01-19T10:29:49.185Z,17.17
2023-01-19T10:32:21.357Z,17.19
2023-01-19T10:35:00.901Z,17.11
2023-01-19T10:41:08.650Z,17.02
2023-01-19T10:43:43.862Z,16.86
2023-01-19T10:46:20.001Z,16.78
2023-01-19T10:48:57.708Z,16.82
2023-01-19T10:51:26.687Z,16.75
2023-01-19T10:54:07.726Z,16.55
2023-01-19T10:56:50.802Z,16.49
2023-01-19T10:59:40.518Z,16.58
2023-01-19T11:02:27.935Z,16.79
2023-01-19T11:05:02.663Z,16.84
2023-01-19T11:07:33.674Z,16.85
2023-01-19T11:10:24.216Z,16.66
2023-01-19T11:13:09.315Z,16.61
2023-01-19T11:15:43.545Z,16.67
2023-01-19T11:18:33.065Z,16.76
2023-01-19T11:21:06.106Z,16.88
2023-01-19T11:23:44.011Z,16.92
2023-01-19T11:26:18.861Z,16.76
2023-01-19T11:28:53.297Z,16.81
2023-01-19T11:31:36.821Z,16.90
2023-01-19T11:34:29.810Z,16.72
2023-01-19T11:37:01.998Z,17.06
2023-01-19T11:39:33.231Z,17.00
2023-01-19T11:42:06.351Z,16.86
2023-01-19T11:44:42.063Z,16.86
2023-01-19T11:47:22.361Z,16.72
2023-01-19T11:50:18.601Z,16.71
2023-01-19T11:53:00.583Z,16.56
2023-01-19T11:56:03.480Z,16.63
2023-01-19T11:58:34.974Z,16.85
2023-01-19T12:01:15.819Z,16.73
2023-01-19T12:03:59.846Z,16.82
2023-01-19T12:06:36.017Z,16.77
2023-01-19T12:09:10.654Z,16.71
2023-01-19T12:11:42.394Z,16.72
2023-01-19T12:14:22.931Z,16.72
2023-01-19T12:16:54.458Z,16.83
2023-01-19T12:19:26.202Z,16.82
2023-01-19T12:21:56.633Z,16.90
2023-01-19T12:24:34.038Z,16.86
2023-01-19T12:42:30.606Z,17.70
2023-01-19T12:55:09.310Z,17.01
2023-01-19T12:56:46.038Z,17.36
2023-01-19T12:57:41.166Z,16.79
2023-01-19T13:03:30.730Z,16.70
2023-01-19T13:06:06.590Z,16.61
2023-01-19T13:08:58.170Z,16.48
2023-01-19T13:34:48.933Z,16.67
2023-01-19T14:24:16.238Z,16.10
2023-01-19T14:26:49.271Z,16.01
2023-01-19T14:29:24.282Z,15.91
2023-01-19T14:32:07.735Z,15.90
2023-01-19T14:34:46.680Z,15.85
2023-01-19T14:37:45.429Z,15.72
2023-01-19T14:40:44.562Z,15.69
2023-01-19T14:46:13.174Z,15.39
2023-01-19T14:48:50.325Z,15.37
2023-01-19T14:51:22.077Z,15.37
2023-01-19T14:53:54.146Z,15.52
2023-01-19T14:56:34.026Z,15.46
2023-01-19T14:59:09.969Z,15.30
2023-01-19T15:01:38.919Z,15.34
2023-01-19T15:04:09.309Z,15.16
2023-01-19T15:06:41.180Z,15.27
2023-01-19T15:09:14.503Z,15.30
2023-01-19T15:11:45.232Z,15.17
2023-01-19T15:14:16.448Z,15.22
2023-01-19T15:16:45.461Z,15.14
2023-01-19T15:19:17.652Z,15.07
2023-01-19T15:24:46.571Z,15.12
2023-01-19T15:27:15.967Z,15.19
2023-01-19T15:29:57.335Z,15.16
2023-01-19T15:32:44.483Z,15.15
2023-01-19T15:35:26.149Z,15.15
2023-01-19T15:37:52.570Z,14.97
2023-01-19T15:40:23.277Z,15.01
2023-01-19T15:43:01.445Z,14.99
2023-01-19T15:45:41.585Z,14.73
2023-01-19T15:48:15.676Z,14.56
2023-01-19T15:50:47.847Z,14.40
2023-01-19T15:53:19.659Z,14.18
2023-01-19T15:55:52.703Z,13.99
2023-01-19T15:58:21.616Z,13.77
2023-01-19T16:01:01.481Z,13.68
2023-01-19T16:03:33.350Z,13.58
2023-01-19T16:06:17.991Z,13.51
2023-01-19T16:08:59.010Z,13.12
2023-01-19T16:11:38.135Z,13.37
2023-01-19T16:17:21.666Z,13.35
2023-01-19T16:23:34.643Z,13.38
2023-01-19T16:30:18.234Z,13.66
2023-01-19T16:32:49.183Z,13.89
2023-01-19T16:35:30.076Z,13.84
2023-01-19T16:38:09.691Z,13.64
2023-01-19T16:40:40.806Z,13.47
2023-01-19T16:43:14.596Z,13.25
2023-01-19T16:46:05.187Z,12.98
2023-01-19T16:48:35.945Z,12.82
2023-01-19T16:51:13.784Z,12.57
2023-01-19T16:53:42.961Z,12.50
2023-01-19T16:56:22.577Z,12.52
2023-01-19T16:59:31.796Z,12.51
2023-01-19T17:41:12.461Z,12.08
2023-01-19T17:43:53.216Z,12.15
2023-01-19T17:49:19.964Z,12.21
2023-01-19T17:51:57.509Z,12.25
2023-01-19T17:54:26.402Z,12.28
2023-01-19T17:56:56.369Z,12.24
2023-01-19T17:59:25.219Z,12.26
2023-01-19T18:01:54.595Z,12.30
2023-01-19T18:04:23.196Z,12.37
2023-01-19T18:06:51.910Z,12.37
2023-01-19T18:09:20.788Z,12.29
2023-01-19T18:11:49.332Z,12.12
2023-01-19T18:14:18.141Z,11.99
2023-01-19T18:16:46.776Z,11.85
2023-01-19T18:19:15.518Z,11.41
2023-01-19T18:21:44.302Z,11.27
2023-01-19T18:24:13.080Z,11.21
2023-01-19T18:26:42.661Z,11.14
2023-01-19T18:29:11.394Z,11.01
2023-01-19T18:31:40.169Z,10.89
2023-01-19T18:34:09.010Z,10.77
2023-01-19T18:36:37.834Z,10.60
2023-01-19T18:39:06.528Z,10.38
2023-01-19T18:41:37.074Z,10.28
2023-01-19T18:47:25.862Z,10.13
2023-01-19T18:50:07.147Z,10.02
2023-01-19T18:52:36.238Z,10.05
2023-01-19T18:55:11.084Z,10.00
2023-01-19T18:57:49.213Z,10.06
2023-01-19T19:00:19.064Z,10.04
2023-01-19T19:02:47.847Z,9.93
2023-01-19T19:05:16.998Z,10.01
2023-01-19T19:10:42.791Z,10.31
2023-01-19T19:13:16.528Z,10.28
2023-01-19T19:15:52.224Z,10.41
2023-01-19T19:18:21.554Z,10.07
2023-01-19T19:20:53.527Z,10.00
2023-01-19T19:23:22.182Z,9.88
2023-01-19T19:25:50.834Z,9.81
2023-01-19T19:28:23.003Z,9.60
2023-01-19T19:30:53.473Z,9.58
2023-01-19T19:33:22.342Z,9.36
2023-01-19T19:35:54.041Z,9.28
2023-01-19T19:38:23.034Z,9.28
2023-01-19T19:40:53.526Z,9.37
2023-01-19T19:43:23.086Z,9.42
2023-01-19T19:46:03.557Z,9.22
2023-01-19T19:48:39.052Z,9.03
2023-01-19T19:51:17.503Z,9.08
2023-01-19T19:53:52.480Z,9.02
2023-01-19T19:56:37.789Z,9.27
2023-01-19T19:59:12.742Z,9.39
2023-01-19T20:01:43.936Z,9.53
2023-01-19T20:04:24.589Z,9.51
2023-01-19T20:09:55.395Z,9.49
2023-01-19T20:12:30.680Z,9.60
2023-01-19T20:14:59.296Z,9.57
2023-01-19T20:17:29.517Z,9.53
2023-01-19T20:19:59.238Z,9.55
2023-01-19T20:22:33.925Z,9.49
2023-01-19T20:25:02.623Z,9.63
2023-01-19T20:27:40.984Z,9.46
2023-01-19T20:30:16.780Z,9.04
2023-01-19T20:32:56.542Z,8.77
2023-01-19T20:35:18.908Z,8.80
2023-01-19T20:37:48.548Z,9.00
2023-01-19T20:40:21.751Z,9.07
2023-01-19T20:42:50.280Z,9.20
2023-01-19T20:45:26.208Z,9.35
2023-01-19T20:47:54.773Z,9.41
2023-01-19T20:50:23.519Z,9.44
2023-01-19T20:52:59.888Z,9.58
2023-01-19T20:55:46.093Z,9.62
2023-01-19T20:58:17.943Z,9.63
2023-01-19T21:00:48.539Z,9.63
2023-01-19T21:03:17.731Z,9.57
2023-01-19T21:05:51.538Z,9.52
2023-01-19T21:08:20.293Z,9.65
2023-01-19T21:10:53.795Z,9.69
2023-01-19T21:13:22.511Z,9.68
2023-01-19T21:15:51.259Z,9.25
2023-01-19T21:18:20.045Z,9.34
2023-01-19T21:20:51.824Z,9.32
2023-01-19T21:23:20.696Z,9.12
2023-01-19T21:25:58.554Z,8.97
2023-01-19T21:28:30.293Z,8.97
2023-01-19T21:31:00.457Z,8.77
2023-01-19T21:33:29.094Z,8.58
2023-01-19T21:35:59.963Z,8.88
2023-01-19T21:38:30.382Z,8.87
2023-01-19T21:40:59.948Z,8.93
2023-01-19T21:43:28.749Z,9.07
2023-01-19T21:45:57.470Z,9.01
2023-01-19T21:48:26.182Z,9.02
2023-01-19T21:51:03.691Z,9.04
2023-01-19T21:53:34.678Z,9.04
2023-01-19T21:56:03.327Z,8.97
2023-01-19T21:58:32.111Z,8.95
2023-01-19T22:01:07.710Z,9.03
2023-01-19T22:03:36.526Z,8.96
2023-01-19T22:06:08.159Z,8.94
2023-01-19T22:08:37.718Z,9.02
2023-01-19T22:11:11.735Z,9.07
2023-01-19T22:13:43.661Z,8.99
2023-01-19T22:16:15.099Z,9.13
2023-01-19T22:21:36.751Z,9.02
2023-01-19T22:24:16.204Z,8.89
2023-01-19T22:26:53.109Z,9.00
2023-01-19T22:32:23.500Z,9.02
2023-01-19T22:34:51.281Z,9.02
2023-01-19T22:37:22.213Z,8.86
2023-01-19T22:39:57.446Z,9.02
2023-01-19T22:42:32.638Z,9.06
2023-01-19T22:45:03.698Z,9.05
2023-01-19T22:47:35.178Z,9.13
2023-01-19T22:50:04.061Z,8.98
2023-01-19T22:52:49.062Z,8.92
2023-01-19T22:55:22.826Z,8.82
2023-01-19T22:58:11.950Z,8.66
2023-01-19T23:00:44.602Z,8.35
2023-01-19T23:03:35.723Z,8.43
2023-01-19T23:06:16.867Z,8.49
2023-01-19T23:15:42.091Z,8.50
2023-01-19T23:18:29.888Z,8.30
2023-01-19T23:21:09.022Z,8.28
2023-01-19T23:23:41.030Z,8.32
2023-01-19T23:26:20.331Z,8.30
2023-01-19T23:28:51.104Z,8.32
2023-01-19T23:31:25.505Z,8.32
2023-01-19T23:33:59.867Z,7.98
2023-01-19T23:36:32.627Z,7.82
2023-01-19T23:39:19.491Z,7.65
2023-01-19T23:41:49.229Z,7.49
2023-01-19T23:44:19.738Z,7.51
2023-01-19T23:46:49.701Z,7.66
2023-01-19T23:49:20.037Z,7.72
2023-01-19T23:51:52.332Z,7.59
2023-01-19T23:54:37.147Z,7.65
2023-01-19T23:57:09.099Z,7.68
2023-01-19T23:59:38.303Z,7.68
